sensor_id;sensor_type;location;lat;lon;timestamp;pressure;altitude;pressure_sealevel;temperature;humidity
43115;BME280;28727;50.068;14.452;2022-08-21T00:01:05;99205.19;;;19.34;78.87
43115;BME280;28727;50.068;14.452;2022-08-21T00:03:37;99204.00;;;19.30;78.94
43115;BME280;28727;50.068;14.452;2022-08-21T00:06:10;99201.78;;;19.27;78.77
43115;BME280;28727;50.068;14.452;2022-08-21T00:08:44;99198.53;;;19.25;79.35
43115;BME280;28727;50.068;14.452;2022-08-21T00:11:16;99203.06;;;19.25;79.46
43115;BME280;28727;50.068;14.452;2022-08-21T00:13:48;99199.78;;;19.22;79.60
43115;BME280;28727;50.068;14.452;2022-08-21T00:16:20;99199.44;;;19.19;79.39
43115;BME280;28727;50.068;14.452;2022-08-21T00:18:51;99195.13;;;19.18;79.59
43115;BME280;28727;50.068;14.452;2022-08-21T00:21:23;99193.94;;;19.14;79.45
43115;BME280;28727;50.068;14.452;2022-08-21T00:23:56;99194.47;;;19.04;79.72
43115;BME280;28727;50.068;14.452;2022-08-21T00:26:28;99202.38;;;18.99;79.90
43115;BME280;28727;50.068;14.452;2022-08-21T00:29:00;99195.84;;;18.95;80.09
43115;BME280;28727;50.068;14.452;2022-08-21T00:31:32;99193.19;;;18.95;80.47
43115;BME280;28727;50.068;14.452;2022-08-21T00:34:06;99192.13;;;18.96;80.34
43115;BME280;28727;50.068;14.452;2022-08-21T00:36:39;99187.00;;;18.95;80.60
43115;BME280;28727;50.068;14.452;2022-08-21T00:39:11;99189.91;;;18.93;80.51
43115;BME280;28727;50.068;14.452;2022-08-21T00:41:42;99190.13;;;18.92;80.52
43115;BME280;28727;50.068;14.452;2022-08-21T00:44:15;99185.22;;;18.89;80.30
43115;BME280;28727;50.068;14.452;2022-08-21T00:46:47;99183.16;;;18.91;80.13
43115;BME280;28727;50.068;14.452;2022-08-21T00:49:18;99184.06;;;18.85;80.76
43115;BME280;28727;50.068;14.452;2022-08-21T00:51:55;99184.97;;;18.78;80.83
43115;BME280;28727;50.068;14.452;2022-08-21T00:54:30;99189.50;;;18.78;80.98
43115;BME280;28727;50.068;14.452;2022-08-21T00:57:09;99187.03;;;18.76;81.34
43115;BME280;28727;50.068;14.452;2022-08-21T00:59:44;99190.75;;;18.75;81.47
43115;BME280;28727;50.068;14.452;2022-08-21T01:02:19;99186.22;;;18.76;81.69
43115;BME280;28727;50.068;14.452;2022-08-21T01:04:52;99190.75;;;18.75;82.08
43115;BME280;28727;50.068;14.452;2022-08-21T01:07:24;99184.97;;;18.78;81.49
43115;BME280;28727;50.068;14.452;2022-08-21T01:09:58;99178.41;;;18.74;81.91
43115;BME280;28727;50.068;14.452;2022-08-21T01:12:31;99188.28;;;18.74;82.05
43115;BME280;28727;50.068;14.452;2022-08-21T01:15:05;99181.69;;;18.76;82.41
43115;BME280;28727;50.068;14.452;2022-08-21T01:17:37;99182.72;;;18.75;82.00
43115;BME280;28727;50.068;14.452;2022-08-21T01:20:10;99173.03;;;18.74;82.57
43115;BME280;28727;50.068;14.452;2022-08-21T01:22:42;99175.97;;;18.73;82.64
43115;BME280;28727;50.068;14.452;2022-08-21T01:25:16;99170.25;;;18.69;82.76
43115;BME280;28727;50.068;14.452;2022-08-21T01:27:48;99163.72;;;18.65;82.80
43115;BME280;28727;50.068;14.452;2022-08-21T01:30:24;99168.69;;;18.62;83.39
43115;BME280;28727;50.068;14.452;2022-08-21T01:32:57;99163.94;;;18.64;83.49
43115;BME280;28727;50.068;14.452;2022-08-21T01:35:29;99163.72;;;18.65;83.55
43115;BME280;28727;50.068;14.452;2022-08-21T01:38:01;99166.16;;;18.67;83.73
43115;BME280;28727;50.068;14.452;2022-08-21T01:40:32;99168.84;;;18.67;83.48
43115;BME280;28727;50.068;14.452;2022-08-21T01:43:04;99165.22;;;18.61;83.39
43115;BME280;28727;50.068;14.452;2022-08-21T01:45:36;99175.31;;;18.59;84.03
43115;BME280;28727;50.068;14.452;2022-08-21T01:48:08;99169.34;;;18.57;84.10
43115;BME280;28727;50.068;14.452;2022-08-21T01:50:39;99158.66;;;18.57;84.35
43115;BME280;28727;50.068;14.452;2022-08-21T01:53:11;99159.25;;;18.59;83.73
43115;BME280;28727;50.068;14.452;2022-08-21T01:55:43;99156.81;;;18.58;83.98
43115;BME280;28727;50.068;14.452;2022-08-21T01:58:15;99154.25;;;18.63;83.98
43115;BME280;28727;50.068;14.452;2022-08-21T02:00:47;99154.03;;;18.64;83.84
43115;BME280;28727;50.068;14.452;2022-08-21T02:03:23;99151.38;;;18.64;83.64
43115;BME280;28727;50.068;14.452;2022-08-21T02:06:07;99150.34;;;18.65;83.74
43115;BME280;28727;50.068;14.452;2022-08-21T02:08:43;99148.22;;;18.67;83.51
43115;BME280;28727;50.068;14.452;2022-08-21T02:11:15;99149.88;;;18.68;83.66
43115;BME280;28727;50.068;14.452;2022-08-21T02:13:46;99145.34;;;18.69;83.95
43115;BME280;28727;50.068;14.452;2022-08-21T02:16:18;99141.41;;;18.71;83.85
43115;BME280;28727;50.068;14.452;2022-08-21T02:18:51;99141.19;;;18.73;83.54
43115;BME280;28727;50.068;14.452;2022-08-21T02:21:26;99137.44;;;18.74;83.73
43115;BME280;28727;50.068;14.452;2022-08-21T02:23:58;99142.78;;;18.74;83.21
43115;BME280;28727;50.068;14.452;2022-08-21T02:26:30;99136.63;;;18.73;83.48
43115;BME280;28727;50.068;14.452;2022-08-21T02:29:04;99133.94;;;18.73;83.45
43115;BME280;28727;50.068;14.452;2022-08-21T02:31:36;99138.25;;;18.74;83.68
43115;BME280;28727;50.068;14.452;2022-08-21T02:34:07;99130.00;;;18.76;83.33
43115;BME280;28727;50.068;14.452;2022-08-21T02:36:40;99131.28;;;18.73;83.19
43115;BME280;28727;50.068;14.452;2022-08-21T02:39:11;99132.56;;;18.71;83.63
43115;BME280;28727;50.068;14.452;2022-08-21T02:41:43;99125.34;;;18.71;83.79
43115;BME280;28727;50.068;14.452;2022-08-21T02:44:15;99132.78;;;18.69;83.38
43115;BME280;28727;50.068;14.452;2022-08-21T02:46:46;99129.28;;;18.69;83.53
43115;BME280;28727;50.068;14.452;2022-08-21T02:49:18;99138.00;;;18.64;83.77
43115;BME280;28727;50.068;14.452;2022-08-21T02:51:50;99128.78;;;18.60;84.13
43115;BME280;28727;50.068;14.452;2022-08-21T02:54:23;99136.00;;;18.60;84.32
43115;BME280;28727;50.068;14.452;2022-08-21T02:56:55;99141.78;;;18.57;84.46
43115;BME280;28727;50.068;14.452;2022-08-21T02:59:26;99139.09;;;18.57;84.58
43115;BME280;28727;50.068;14.452;2022-08-21T03:01:58;99138.06;;;18.58;85.07
43115;BME280;28727;50.068;14.452;2022-08-21T03:04:30;99140.53;;;18.59;84.64
43115;BME280;28727;50.068;14.452;2022-08-21T03:07:01;99136.44;;;18.57;84.96
43115;BME280;28727;50.068;14.452;2022-08-21T03:09:33;99134.38;;;18.59;85.09
43115;BME280;28727;50.068;14.452;2022-08-21T03:12:04;99135.31;;;18.64;84.99
43115;BME280;28727;50.068;14.452;2022-08-21T03:14:36;99141.13;;;18.61;84.33
43115;BME280;28727;50.068;14.452;2022-08-21T03:17:09;99138.47;;;18.61;84.67
43115;BME280;28727;50.068;14.452;2022-08-21T03:19:41;99142.75;;;18.62;84.73
43115;BME280;28727;50.068;14.452;2022-08-21T03:22:13;99143.13;;;18.66;84.97
43115;BME280;28727;50.068;14.452;2022-08-21T03:24:45;99139.16;;;18.68;84.30
43115;BME280;28727;50.068;14.452;2022-08-21T03:27:17;99140.44;;;18.66;84.58
43115;BME280;28727;50.068;14.452;2022-08-21T03:29:53;99141.28;;;18.66;84.49
43115;BME280;28727;50.068;14.452;2022-08-21T03:32:27;99142.75;;;18.62;84.34
43115;BME280;28727;50.068;14.452;2022-08-21T03:35:04;99147.53;;;18.60;84.57
43115;BME280;28727;50.068;14.452;2022-08-21T03:37:35;99145.88;;;18.59;84.98
43115;BME280;28727;50.068;14.452;2022-08-21T03:40:11;99143.88;;;18.55;84.90
43115;BME280;28727;50.068;14.452;2022-08-21T03:42:43;99149.44;;;18.53;85.43
43115;BME280;28727;50.068;14.452;2022-08-21T03:45:18;99156.84;;;18.51;85.38
43115;BME280;28727;50.068;14.452;2022-08-21T03:47:55;99151.28;;;18.53;85.43
43115;BME280;28727;50.068;14.452;2022-08-21T03:50:31;99150.84;;;18.56;85.28
43115;BME280;28727;50.068;14.452;2022-08-21T03:53:05;99154.13;;;18.58;84.99
43115;BME280;28727;50.068;14.452;2022-08-21T03:55:37;99150.19;;;18.60;85.23
43115;BME280;28727;50.068;14.452;2022-08-21T03:58:09;99151.38;;;18.64;85.08
43115;BME280;28727;50.068;14.452;2022-08-21T04:00:49;99150.13;;;18.67;85.22
43115;BME280;28727;50.068;14.452;2022-08-21T04:03:22;99156.72;;;18.64;85.06
43115;BME280;28727;50.068;14.452;2022-08-21T04:05:54;99159.03;;;18.61;85.20
43115;BME280;28727;50.068;14.452;2022-08-21T04:08:27;99166.25;;;18.60;85.04
43115;BME280;28727;50.068;14.452;2022-08-21T04:10:59;99166.00;;;18.62;84.66
43115;BME280;28727;50.068;14.452;2022-08-21T04:13:31;99174.72;;;18.57;84.62
43115;BME280;28727;50.068;14.452;2022-08-21T04:16:03;99175.13;;;18.54;84.69
43115;BME280;28727;50.068;14.452;2022-08-21T04:18:36;99178.72;;;18.48;85.29
43115;BME280;28727;50.068;14.452;2022-08-21T04:21:10;99178.09;;;18.46;85.05
43115;BME280;28727;50.068;14.452;2022-08-21T04:23:43;99176.31;;;18.40;85.34
43115;BME280;28727;50.068;14.452;2022-08-21T04:26:18;99175.16;;;18.36;86.41
43115;BME280;28727;50.068;14.452;2022-08-21T04:28:50;99178.41;;;18.38;86.54
43115;BME280;28727;50.068;14.452;2022-08-21T04:31:21;99186.59;;;18.43;86.32
43115;BME280;28727;50.068;14.452;2022-08-21T04:33:53;99194.38;;;18.45;86.61
43115;BME280;28727;50.068;14.452;2022-08-21T04:36:25;99192.31;;;18.47;86.36
43115;BME280;28727;50.068;14.452;2022-08-21T04:38:57;99192.75;;;18.44;87.12
43115;BME280;28727;50.068;14.452;2022-08-21T04:41:29;99194.75;;;18.48;86.98
43115;BME280;28727;50.068;14.452;2022-08-21T04:44:03;99194.09;;;18.53;86.73
43115;BME280;28727;50.068;14.452;2022-08-21T04:46:36;99194.91;;;18.53;86.58
43115;BME280;28727;50.068;14.452;2022-08-21T04:49:08;99196.53;;;18.54;86.51
43115;BME280;28727;50.068;14.452;2022-08-21T04:51:40;99197.97;;;18.57;86.12
43115;BME280;28727;50.068;14.452;2022-08-21T04:54:21;99203.56;;;18.55;86.16
43115;BME280;28727;50.068;14.452;2022-08-21T04:56:56;99195.00;;;18.65;87.01
43115;BME280;28727;50.068;14.452;2022-08-21T04:59:39;99196.56;;;18.72;86.45
43115;BME280;28727;50.068;14.452;2022-08-21T05:02:12;99200.13;;;18.85;86.26
43115;BME280;28727;50.068;14.452;2022-08-21T05:04:48;99204.16;;;19.05;85.15
43115;BME280;28727;50.068;14.452;2022-08-21T05:07:26;99198.06;;;19.28;83.62
43115;BME280;28727;50.068;14.452;2022-08-21T05:10:14;99191.91;;;19.39;82.74
43115;BME280;28727;50.068;14.452;2022-08-21T05:12:45;99197.31;;;19.51;81.80
43115;BME280;28727;50.068;14.452;2022-08-21T05:15:17;99197.44;;;19.56;81.28
43115;BME280;28727;50.068;14.452;2022-08-21T05:17:49;99202.56;;;19.57;81.16
43115;BME280;28727;50.068;14.452;2022-08-21T05:20:32;99203.19;;;19.59;81.03
43115;BME280;28727;50.068;14.452;2022-08-21T05:23:10;99204.00;;;19.60;80.45
43115;BME280;28727;50.068;14.452;2022-08-21T05:25:43;99213.41;;;19.62;80.38
43115;BME280;28727;50.068;14.452;2022-08-21T05:28:16;99219.88;;;19.73;79.85
43115;BME280;28727;50.068;14.452;2022-08-21T05:30:50;99220.94;;;19.84;79.47
43115;BME280;28727;50.068;14.452;2022-08-21T05:33:21;99214.97;;;19.93;78.60
43115;BME280;28727;50.068;14.452;2022-08-21T05:35:54;99221.88;;;20.01;78.56
43115;BME280;28727;50.068;14.452;2022-08-21T05:38:27;99226.53;;;20.06;78.21
43115;BME280;28727;50.068;14.452;2022-08-21T05:40:59;99228.06;;;20.13;77.78
43115;BME280;28727;50.068;14.452;2022-08-21T05:43:31;99234.13;;;20.20;77.45
43115;BME280;28727;50.068;14.452;2022-08-21T05:46:08;99226.88;;;20.21;77.22
43115;BME280;28727;50.068;14.452;2022-08-21T05:48:40;99226.41;;;20.24;77.36
43115;BME280;28727;50.068;14.452;2022-08-21T05:51:14;99220.09;;;20.30;77.04
43115;BME280;28727;50.068;14.452;2022-08-21T05:53:46;99228.88;;;20.37;76.61
43115;BME280;28727;50.068;14.452;2022-08-21T05:56:18;99227.69;;;20.21;77.48
43115;BME280;28727;50.068;14.452;2022-08-21T05:58:53;99225.94;;;20.15;77.80
43115;BME280;28727;50.068;14.452;2022-08-21T06:01:25;99222.78;;;20.18;77.51
43115;BME280;28727;50.068;14.452;2022-08-21T06:03:57;99223.13;;;20.22;77.68
43115;BME280;28727;50.068;14.452;2022-08-21T06:06:31;99220.34;;;20.28;77.27
43115;BME280;28727;50.068;14.452;2022-08-21T06:09:04;99217.66;;;20.40;76.44
43115;BME280;28727;50.068;14.452;2022-08-21T06:11:36;99218.97;;;20.37;76.48
43115;BME280;28727;50.068;14.452;2022-08-21T06:14:08;99220.94;;;20.42;76.18
43115;BME280;28727;50.068;14.452;2022-08-21T06:16:44;99233.41;;;20.48;75.49
43115;BME280;28727;50.068;14.452;2022-08-21T06:19:16;99234.47;;;20.47;75.50
43115;BME280;28727;50.068;14.452;2022-08-21T06:21:47;99228.28;;;20.47;75.73
43115;BME280;28727;50.068;14.452;2022-08-21T06:24:21;99236.94;;;20.49;75.49
43115;BME280;28727;50.068;14.452;2022-08-21T06:26:53;99233.53;;;20.41;75.83
43115;BME280;28727;50.068;14.452;2022-08-21T06:29:25;99240.06;;;20.46;75.27
43115;BME280;28727;50.068;14.452;2022-08-21T06:31:57;99236.53;;;20.57;74.50
43115;BME280;28727;50.068;14.452;2022-08-21T06:34:29;99238.88;;;20.65;74.06
43115;BME280;28727;50.068;14.452;2022-08-21T06:37:01;99240.97;;;20.63;73.98
43115;BME280;28727;50.068;14.452;2022-08-21T06:39:33;99247.38;;;20.62;73.75
43115;BME280;28727;50.068;14.452;2022-08-21T06:42:05;99238.66;;;20.66;73.52
43115;BME280;28727;50.068;14.452;2022-08-21T06:44:43;99253.13;;;20.65;73.54
43115;BME280;28727;50.068;14.452;2022-08-21T06:47:15;99246.22;;;20.69;73.54
43115;BME280;28727;50.068;14.452;2022-08-21T06:49:46;99238.97;;;20.70;73.47
43115;BME280;28727;50.068;14.452;2022-08-21T06:52:19;99244.72;;;20.73;73.02
43115;BME280;28727;50.068;14.452;2022-08-21T06:54:51;99240.63;;;20.71;73.22
43115;BME280;28727;50.068;14.452;2022-08-21T06:57:23;99249.13;;;20.68;73.75
43115;BME280;28727;50.068;14.452;2022-08-21T06:59:54;99254.41;;;20.51;74.21
43115;BME280;28727;50.068;14.452;2022-08-21T07:02:26;99255.22;;;20.52;73.92
43115;BME280;28727;50.068;14.452;2022-08-21T07:04:58;99245.78;;;20.61;73.77
43115;BME280;28727;50.068;14.452;2022-08-21T07:07:30;99254.75;;;20.66;73.75
43115;BME280;28727;50.068;14.452;2022-08-21T07:10:05;99250.88;;;20.74;73.19
43115;BME280;28727;50.068;14.452;2022-08-21T07:12:37;99247.50;;;20.67;73.13
43115;BME280;28727;50.068;14.452;2022-08-21T07:15:09;99248.19;;;20.74;73.07
43115;BME280;28727;50.068;14.452;2022-08-21T07:17:41;99247.50;;;20.78;72.50
43115;BME280;28727;50.068;14.452;2022-08-21T07:20:12;99250.72;;;20.80;72.64
43115;BME280;28727;50.068;14.452;2022-08-21T07:22:44;99251.88;;;20.96;71.64
43115;BME280;28727;50.068;14.452;2022-08-21T07:25:16;99257.56;;;21.00;71.16
43115;BME280;28727;50.068;14.452;2022-08-21T07:27:47;99261.31;;;20.99;71.56
43115;BME280;28727;50.068;14.452;2022-08-21T07:30:21;99257.84;;;20.87;72.15
43115;BME280;28727;50.068;14.452;2022-08-21T07:32:54;99260.41;;;20.93;71.50
43115;BME280;28727;50.068;14.452;2022-08-21T07:35:25;99259.09;;;21.07;71.08
43115;BME280;28727;50.068;14.452;2022-08-21T07:38:01;99258.94;;;21.14;70.66
43115;BME280;28727;50.068;14.452;2022-08-21T07:40:33;99265.50;;;21.18;70.03
43115;BME280;28727;50.068;14.452;2022-08-21T07:43:04;99263.22;;;21.27;69.70
43115;BME280;28727;50.068;14.452;2022-08-21T07:45:37;99258.16;;;21.42;69.93
43115;BME280;28727;50.068;14.452;2022-08-21T07:48:08;99253.03;;;21.57;69.28
43115;BME280;28727;50.068;14.452;2022-08-21T07:50:42;99258.09;;;21.70;69.19
43115;BME280;28727;50.068;14.452;2022-08-21T07:53:14;99260.88;;;21.92;67.36
43115;BME280;28727;50.068;14.452;2022-08-21T07:55:46;99262.81;;;22.08;67.00
43115;BME280;28727;50.068;14.452;2022-08-21T07:58:18;99266.06;;;22.10;66.90
43115;BME280;28727;50.068;14.452;2022-08-21T08:00:49;99264.16;;;21.94;67.24
43115;BME280;28727;50.068;14.452;2022-08-21T08:03:21;99269.53;;;22.27;68.00
43115;BME280;28727;50.068;14.452;2022-08-21T08:05:59;99256.50;;;22.74;66.29
43115;BME280;28727;50.068;14.452;2022-08-21T08:08:32;99267.69;;;23.10;64.80
43115;BME280;28727;50.068;14.452;2022-08-21T08:11:05;99260.19;;;23.12;63.45
43115;BME280;28727;50.068;14.452;2022-08-21T08:13:39;99263.75;;;23.17;61.04
43115;BME280;28727;50.068;14.452;2022-08-21T08:16:12;99262.66;;;23.40;61.25
43115;BME280;28727;50.068;14.452;2022-08-21T08:18:44;99262.34;;;23.37;61.05
43115;BME280;28727;50.068;14.452;2022-08-21T08:21:16;99261.59;;;23.41;60.27
43115;BME280;28727;50.068;14.452;2022-08-21T08:23:49;99248.53;;;23.55;60.48
43115;BME280;28727;50.068;14.452;2022-08-21T08:26:20;99256.31;;;23.51;60.50
43115;BME280;28727;50.068;14.452;2022-08-21T08:28:52;99262.56;;;23.57;60.21
43115;BME280;28727;50.068;14.452;2022-08-21T08:31:24;99263.38;;;23.57;60.09
43115;BME280;28727;50.068;14.452;2022-08-21T08:33:56;99259.78;;;23.74;60.05
43115;BME280;28727;50.068;14.452;2022-08-21T08:36:33;99256.63;;;23.87;59.99
43115;BME280;28727;50.068;14.452;2022-08-21T08:39:05;99256.56;;;23.77;58.90
43115;BME280;28727;50.068;14.452;2022-08-21T08:41:43;99260.41;;;23.86;59.40
43115;BME280;28727;50.068;14.452;2022-08-21T08:44:17;99255.59;;;24.20;58.36
43115;BME280;28727;50.068;14.452;2022-08-21T08:46:50;99257.31;;;24.36;57.36
43115;BME280;28727;50.068;14.452;2022-08-21T08:49:29;99246.88;;;24.55;56.81
43115;BME280;28727;50.068;14.452;2022-08-21T08:52:22;99246.72;;;24.81;56.74
43115;BME280;28727;50.068;14.452;2022-08-21T08:55:13;99248.53;;;25.23;55.64
43115;BME280;28727;50.068;14.452;2022-08-21T08:57:47;99252.63;;;25.31;55.40
43115;BME280;28727;50.068;14.452;2022-08-21T09:00:23;99249.34;;;25.28;55.28
43115;BME280;28727;50.068;14.452;2022-08-21T09:02:57;99236.94;;;25.33;55.10
43115;BME280;28727;50.068;14.452;2022-08-21T09:05:50;99236.13;;;25.47;53.78
43115;BME280;28727;50.068;14.452;2022-08-21T09:08:50;99239.91;;;25.51;53.68
43115;BME280;28727;50.068;14.452;2022-08-21T09:11:35;99240.97;;;25.35;53.94
43115;BME280;28727;50.068;14.452;2022-08-21T09:14:30;99243.44;;;25.47;53.69
43115;BME280;28727;50.068;14.452;2022-08-21T09:17:39;99241.06;;;25.65;53.21
43115;BME280;28727;50.068;14.452;2022-08-21T09:20:45;99235.09;;;25.63;53.51
43115;BME280;28727;50.068;14.452;2022-08-21T09:26:25;99232.94;;;26.01;52.61
43115;BME280;28727;50.068;14.452;2022-08-21T09:28:59;99232.13;;;25.95;51.97
43115;BME280;28727;50.068;14.452;2022-08-21T09:31:34;99231.03;;;25.86;51.98
43115;BME280;28727;50.068;14.452;2022-08-21T09:34:10;99230.25;;;25.86;52.00
43115;BME280;28727;50.068;14.452;2022-08-21T09:36:48;99228.31;;;25.86;51.29
43115;BME280;28727;50.068;14.452;2022-08-21T09:39:29;99238.63;;;25.64;52.88
43115;BME280;28727;50.068;14.452;2022-08-21T09:42:07;99230.19;;;25.55;53.81
43115;BME280;28727;50.068;14.452;2022-08-21T09:44:40;99240.19;;;25.40;53.47
43115;BME280;28727;50.068;14.452;2022-08-21T09:47:18;99230.44;;;25.34;53.44
43115;BME280;28727;50.068;14.452;2022-08-21T09:49:55;99246.38;;;25.35;53.72
43115;BME280;28727;50.068;14.452;2022-08-21T09:52:27;99239.03;;;25.15;53.84
43115;BME280;28727;50.068;14.452;2022-08-21T09:54:58;99236.31;;;25.05;53.65
43115;BME280;28727;50.068;14.452;2022-08-21T09:57:32;99233.03;;;24.98;53.93
43115;BME280;28727;50.068;14.452;2022-08-21T10:02:54;99236.06;;;25.07;53.86
43115;BME280;28727;50.068;14.452;2022-08-21T10:05:26;99225.50;;;25.05;54.31
43115;BME280;28727;50.068;14.452;2022-08-21T10:08:00;99229.34;;;25.24;54.01
43115;BME280;28727;50.068;14.452;2022-08-21T10:10:36;99227.25;;;25.57;54.11
43115;BME280;28727;50.068;14.452;2022-08-21T10:13:16;99229.66;;;25.48;52.35
43115;BME280;28727;50.068;14.452;2022-08-21T10:18:47;99226.47;;;25.92;51.62
43115;BME280;28727;50.068;14.452;2022-08-21T10:21:36;99219.66;;;26.25;51.21
43115;BME280;28727;50.068;14.452;2022-08-21T10:27:30;99214.19;;;26.50;49.72
43115;BME280;28727;50.068;14.452;2022-08-21T10:30:17;99208.47;;;26.57;49.44
43115;BME280;28727;50.068;14.452;2022-08-21T10:35:47;99206.84;;;26.56;48.56
43115;BME280;28727;50.068;14.452;2022-08-21T10:38:49;99202.69;;;26.78;49.02
43115;BME280;28727;50.068;14.452;2022-08-21T10:45:25;99201.84;;;26.83;47.56
43115;BME280;28727;50.068;14.452;2022-08-21T10:48:05;99197.41;;;27.07;47.52
43115;BME280;28727;50.068;14.452;2022-08-21T10:51:04;99193.47;;;27.28;47.07
43115;BME280;28727;50.068;14.452;2022-08-21T10:56:33;99186.94;;;27.74;45.69
43115;BME280;28727;50.068;14.452;2022-08-21T11:02:31;99194.59;;;28.24;45.09
43115;BME280;28727;50.068;14.452;2022-08-21T11:08:24;99187.59;;;27.89;44.83
43115;BME280;28727;50.068;14.452;2022-08-21T11:11:01;99187.81;;;27.64;45.58
43115;BME280;28727;50.068;14.452;2022-08-21T11:13:58;99188.06;;;27.28;45.45
43115;BME280;28727;50.068;14.452;2022-08-21T11:16:48;99186.41;;;26.83;46.53
43115;BME280;28727;50.068;14.452;2022-08-21T11:19:28;99184.88;;;26.62;46.86
43115;BME280;28727;50.068;14.452;2022-08-21T11:22:17;99176.59;;;26.93;46.65
43115;BME280;28727;50.068;14.452;2022-08-21T11:25:03;99174.53;;;27.23;45.79
43115;BME280;28727;50.068;14.452;2022-08-21T11:27:49;99181.13;;;27.46;45.37
43115;BME280;28727;50.068;14.452;2022-08-21T11:30:27;99168.25;;;27.67;43.97
43115;BME280;28727;50.068;14.452;2022-08-21T11:39:12;99159.91;;;28.16;42.93
43115;BME280;28727;50.068;14.452;2022-08-21T11:41:57;99166.41;;;28.20;43.33
43115;BME280;28727;50.068;14.452;2022-08-21T11:44:53;99161.91;;;27.77;43.69
43115;BME280;28727;50.068;14.452;2022-08-21T11:47:56;99160.88;;;27.73;44.08
43115;BME280;28727;50.068;14.452;2022-08-21T11:50:31;99162.56;;;27.63;43.40
43115;BME280;28727;50.068;14.452;2022-08-21T11:53:14;99159.13;;;27.53;43.84
43115;BME280;28727;50.068;14.452;2022-08-21T11:55:53;99161.97;;;27.72;43.77
43115;BME280;28727;50.068;14.452;2022-08-21T11:58:34;99159.63;;;27.89;44.56
43115;BME280;28727;50.068;14.452;2022-08-21T12:01:11;99160.53;;;27.79;43.79
43115;BME280;28727;50.068;14.452;2022-08-21T12:03:59;99153.53;;;28.02;43.58
43115;BME280;28727;50.068;14.452;2022-08-21T12:06:38;99157.53;;;27.81;43.64
43115;BME280;28727;50.068;14.452;2022-08-21T12:09:33;99161.47;;;27.64;44.13
43115;BME280;28727;50.068;14.452;2022-08-21T12:12:13;99159.16;;;27.48;44.90
43115;BME280;28727;50.068;14.452;2022-08-21T12:15:25;99151.06;;;27.43;44.60
43115;BME280;28727;50.068;14.452;2022-08-21T12:17:58;99165.78;;;27.70;43.74
43115;BME280;28727;50.068;14.452;2022-08-21T12:20:41;99157.66;;;27.94;42.53
43115;BME280;28727;50.068;14.452;2022-08-21T12:23:28;99156.91;;;27.60;42.51
43115;BME280;28727;50.068;14.452;2022-08-21T12:28:46;99163.53;;;27.05;43.04
43115;BME280;28727;50.068;14.452;2022-08-21T12:31:21;99168.22;;;26.84;43.34
43115;BME280;28727;50.068;14.452;2022-08-21T12:34:01;99161.47;;;26.81;43.25
43115;BME280;28727;50.068;14.452;2022-08-21T12:36:42;99151.38;;;26.92;43.91
43115;BME280;28727;50.068;14.452;2022-08-21T12:39:22;99150.59;;;27.30;43.98
43115;BME280;28727;50.068;14.452;2022-08-21T12:42:04;99152.91;;;27.52;42.90
43115;BME280;28727;50.068;14.452;2022-08-21T12:44:47;99146.25;;;27.68;42.43
43115;BME280;28727;50.068;14.452;2022-08-21T12:47:33;99145.53;;;27.58;42.71
43115;BME280;28727;50.068;14.452;2022-08-21T12:50:11;99150.34;;;27.32;42.39
43115;BME280;28727;50.068;14.452;2022-08-21T12:53:07;99147.81;;;27.02;42.67
43115;BME280;28727;50.068;14.452;2022-08-21T12:55:51;99151.09;;;26.99;43.22
43115;BME280;28727;50.068;14.452;2022-08-21T12:58:24;99147.75;;;27.12;42.54
43115;BME280;28727;50.068;14.452;2022-08-21T13:01:12;99147.56;;;26.98;42.55
43115;BME280;28727;50.068;14.452;2022-08-21T13:03:46;99135.63;;;26.99;41.49
43115;BME280;28727;50.068;14.452;2022-08-21T13:06:40;99135.00;;;26.58;42.96
43115;BME280;28727;50.068;14.452;2022-08-21T13:09:18;99142.28;;;26.73;43.08
43115;BME280;28727;50.068;14.452;2022-08-21T13:11:51;99136.56;;;26.74;42.45
43115;BME280;28727;50.068;14.452;2022-08-21T13:14:37;99143.38;;;26.67;43.15
43115;BME280;28727;50.068;14.452;2022-08-21T13:17:21;99141.91;;;26.95;42.70
43115;BME280;28727;50.068;14.452;2022-08-21T13:20:03;99149.50;;;26.98;42.68
43115;BME280;28727;50.068;14.452;2022-08-21T13:22:43;99135.25;;;27.16;41.97
43115;BME280;28727;50.068;14.452;2022-08-21T13:25:17;99133.28;;;27.26;41.70
43115;BME280;28727;50.068;14.452;2022-08-21T13:28:00;99133.38;;;27.11;41.63
43115;BME280;28727;50.068;14.452;2022-08-21T13:30:32;99135.91;;;27.03;41.89
43115;BME280;28727;50.068;14.452;2022-08-21T13:33:05;99128.06;;;26.96;42.17
43115;BME280;28727;50.068;14.452;2022-08-21T13:35:51;99136.41;;;27.05;42.46
43115;BME280;28727;50.068;14.452;2022-08-21T13:38:27;99128.94;;;27.25;41.74
43115;BME280;28727;50.068;14.452;2022-08-21T13:43:58;99125.41;;;27.25;41.64
43115;BME280;28727;50.068;14.452;2022-08-21T13:46:34;99122.03;;;27.04;41.70
43115;BME280;28727;50.068;14.452;2022-08-21T13:49:08;99128.84;;;27.02;41.79
43115;BME280;28727;50.068;14.452;2022-08-21T13:51:44;99121.06;;;26.85;41.90
43115;BME280;28727;50.068;14.452;2022-08-21T13:54:27;99115.75;;;26.65;42.52
43115;BME280;28727;50.068;14.452;2022-08-21T13:57:14;99124.50;;;26.46;43.10
43115;BME280;28727;50.068;14.452;2022-08-21T13:59:48;99121.75;;;26.52;42.84
43115;BME280;28727;50.068;14.452;2022-08-21T14:02:23;99122.56;;;26.57;42.74
43115;BME280;28727;50.068;14.452;2022-08-21T14:04:58;99118.84;;;26.43;42.94
43115;BME280;28727;50.068;14.452;2022-08-21T14:07:41;99118.81;;;26.48;43.15
43115;BME280;28727;50.068;14.452;2022-08-21T14:10:21;99126.75;;;26.29;42.87
43115;BME280;28727;50.068;14.452;2022-08-21T14:12:59;99127.56;;;26.09;42.73
43115;BME280;28727;50.068;14.452;2022-08-21T14:15:34;99128.66;;;26.14;42.64